Hartford, Maine
Current Conditions -  °F | °C
As of 4:15 AM on Friday 24 Oct 2014 (Local Time) from KLEW Reporting Station
Overcast Overcast  
Wind Chill: 40°   Ceiling: 800
Heat Index: 46°   Visibility: 10mi
Dew Point: 43°   Wind: 15mph
Humidity: 87%   Direction: 360°N
Pressure: 29.68"   Gusts: NA
Location:  44.2833°N, 70.3688°W
Report Text: KLEW 240815Z AUTO 36013KT 10SM BKN008 OVC015 08/06 A2968 RMK AO1
Loading
Personal Weather Stations






























Interactive Weather Map
Tropical Storm Tracking
New forecast layout! Learn more

10-Day Weather Forecast

Advertisements
Track Severe Weather on mobile